createdAt,value
2022-11-17T00:00:23.317Z,5.28
2022-11-17T00:02:50.356Z,3.97
2022-11-17T00:05:17.223Z,3.85
2022-11-17T00:07:45.541Z,2.85
2022-11-17T00:10:13.077Z,4.25
2022-11-17T00:12:58.573Z,4.05
2022-11-17T00:15:25.272Z,3.33
2022-11-17T00:18:14.816Z,4.18
2022-11-17T00:21:00.363Z,3.78
2022-11-17T00:23:46.929Z,3.47
2022-11-17T00:26:18.117Z,3.10
2022-11-17T00:28:45.018Z,3.25
2022-11-17T00:31:33.749Z,2.55
2022-11-17T00:34:06.262Z,3.00
2022-11-17T00:36:39.987Z,3.00
2022-11-17T00:39:08.058Z,3.35
2022-11-17T00:41:34.935Z,3.30
2022-11-17T00:44:01.694Z,3.13
2022-11-17T00:46:28.447Z,3.90
2022-11-17T00:48:55.167Z,3.15
2022-11-17T00:51:21.949Z,2.70
2022-11-17T00:53:49.362Z,3.08
2022-11-17T00:56:16.372Z,3.33
2022-11-17T00:58:43.199Z,2.88
2022-11-17T01:01:10.101Z,2.60
2022-11-17T01:03:37.330Z,3.50
2022-11-17T01:06:09.052Z,2.90
2022-11-17T01:08:35.967Z,3.00
2022-11-17T01:11:18.997Z,5.03
2022-11-17T01:13:46.548Z,2.70
2022-11-17T01:16:18.089Z,3.00
2022-11-17T01:18:47.102Z,3.47
2022-11-17T01:21:17.546Z,2.72
2022-11-17T01:23:45.042Z,4.63
2022-11-17T01:26:19.501Z,2.63
2022-11-17T01:28:46.345Z,2.08
2022-11-17T01:31:17.718Z,2.50
2022-11-17T01:33:44.670Z,1.80
2022-11-17T01:36:15.122Z,1.45
2022-11-17T01:38:42.189Z,1.85
2022-11-17T01:41:13.875Z,2.40
2022-11-17T01:43:41.793Z,2.53
2022-11-17T01:46:34.066Z,1.35
2022-11-17T01:49:17.539Z,1.52
2022-11-17T01:51:48.324Z,2.13
2022-11-17T01:54:16.342Z,2.00
2022-11-17T01:56:44.418Z,3.10
2022-11-17T01:59:24.453Z,3.00
2022-11-17T02:01:57.586Z,2.75
2022-11-17T02:04:28.694Z,3.38
2022-11-17T02:07:15.654Z,3.72
2022-11-17T02:09:42.479Z,4.97
2022-11-17T02:12:09.797Z,4.72
2022-11-17T02:14:36.536Z,5.93
2022-11-17T02:17:11.519Z,5.47
2022-11-17T02:19:41.815Z,6.35
2022-11-17T02:22:38.025Z,5.90
2022-11-17T02:25:30.015Z,6.47
2022-11-17T02:27:59.733Z,8.93
2022-11-17T02:30:26.430Z,7.70
2022-11-17T02:33:02.227Z,7.60
2022-11-17T02:35:45.671Z,6.57
2022-11-17T02:38:42.896Z,9.33
2022-11-17T02:41:59.323Z,6.68
2022-11-17T02:44:32.262Z,5.43
2022-11-17T02:47:20.602Z,5.28
2022-11-17T02:49:54.003Z,3.50
2022-11-17T02:52:20.710Z,3.70
2022-11-17T02:54:47.433Z,4.38
2022-11-17T02:57:36.914Z,5.95
2022-11-17T03:00:12.064Z,5.70
2022-11-17T03:03:16.519Z,3.33
2022-11-17T03:06:18.846Z,3.63
2022-11-17T03:08:51.491Z,2.97
2022-11-17T03:11:18.193Z,3.03
2022-11-17T03:13:51.668Z,2.83
2022-11-17T03:16:31.411Z,3.90
2022-11-17T03:19:10.034Z,1.60
2022-11-17T03:21:55.419Z,1.77
2022-11-17T03:24:24.841Z,1.50
2022-11-17T03:26:55.492Z,1.08
2022-11-17T03:29:24.017Z,0.73
2022-11-17T03:31:52.395Z,1.00
2022-11-17T03:34:20.888Z,0.80
2022-11-17T03:36:50.090Z,0.70
2022-11-17T03:39:25.982Z,0.63
2022-11-17T03:41:55.576Z,0.30
2022-11-17T03:44:22.785Z,0.40
2022-11-17T03:46:49.495Z,0.60
2022-11-17T03:49:21.302Z,0.50
2022-11-17T03:51:47.971Z,0.40
2022-11-17T03:54:15.548Z,0.30
2022-11-17T03:56:47.979Z,0.40
2022-11-17T03:59:19.808Z,0.50
2022-11-17T04:01:46.617Z,0.30
2022-11-17T04:04:18.486Z,0.30
2022-11-17T04:06:45.251Z,0.20
2022-11-17T04:09:12.271Z,0.45
2022-11-17T04:11:57.528Z,0.30
2022-11-17T04:14:42.952Z,0.75
2022-11-17T04:17:09.666Z,0.30
2022-11-17T04:19:36.607Z,0.32
2022-11-17T04:22:03.338Z,0.20
2022-11-17T04:24:30.120Z,0.63
2022-11-17T04:27:15.164Z,0.38
2022-11-17T04:29:41.921Z,0.57
2022-11-17T04:32:08.586Z,0.68
2022-11-17T04:34:35.327Z,0.57
2022-11-17T04:37:07.976Z,0.43
2022-11-17T04:39:38.862Z,0.70
2022-11-17T04:42:05.589Z,0.45
2022-11-17T04:44:32.565Z,0.98
2022-11-17T04:46:59.455Z,0.88
2022-11-17T04:49:26.174Z,0.73
2022-11-17T04:51:53.494Z,0.75
2022-11-17T04:54:21.908Z,1.00
2022-11-17T04:56:48.640Z,0.80
2022-11-17T04:59:15.393Z,1.05
2022-11-17T05:01:42.330Z,0.77
2022-11-17T05:04:13.397Z,1.05
2022-11-17T05:06:44.142Z,1.15
2022-11-17T05:09:13.298Z,0.93
2022-11-17T05:11:58.922Z,1.73
2022-11-17T05:14:26.226Z,0.93
2022-11-17T05:17:09.447Z,1.25
2022-11-17T05:19:44.544Z,1.15
2022-11-17T05:22:31.316Z,0.82
2022-11-17T05:24:58.150Z,1.25
2022-11-17T05:27:25.053Z,1.60
2022-11-17T05:29:51.764Z,1.70
2022-11-17T05:32:18.931Z,1.30
2022-11-17T05:34:45.699Z,1.55
2022-11-17T05:37:12.372Z,1.10
2022-11-17T05:39:39.316Z,1.02
2022-11-17T05:42:06.067Z,1.48
2022-11-17T05:44:32.716Z,1.27
2022-11-17T05:46:59.375Z,1.35
2022-11-17T05:49:26.100Z,1.60
2022-11-17T05:51:53.305Z,1.33
2022-11-17T05:54:21.243Z,1.23
2022-11-17T05:57:03.317Z,1.20
2022-11-17T06:00:04.554Z,1.25
2022-11-17T06:02:51.575Z,1.05
2022-11-17T06:05:20.369Z,1.08
2022-11-17T06:07:48.033Z,1.40
2022-11-17T06:10:14.799Z,0.95
2022-11-17T06:12:41.514Z,1.20
2022-11-17T06:15:08.602Z,2.38
2022-11-17T06:17:37.701Z,1.30
2022-11-17T06:20:08.988Z,2.58
2022-11-17T06:22:36.025Z,1.10
2022-11-17T06:25:03.351Z,1.08
2022-11-17T06:27:31.202Z,1.55
2022-11-17T06:29:59.970Z,1.33
2022-11-17T06:32:27.629Z,1.77
2022-11-17T06:34:56.387Z,1.08
2022-11-17T06:37:24.614Z,1.35
2022-11-17T06:39:51.308Z,0.82
2022-11-17T06:42:18.001Z,1.10
2022-11-17T06:44:44.671Z,1.10
2022-11-17T06:47:11.435Z,1.40
2022-11-17T06:49:38.107Z,0.95
2022-11-17T06:52:04.817Z,0.90
2022-11-17T06:54:31.537Z,1.10
2022-11-17T06:56:58.329Z,0.95
2022-11-17T06:59:25.043Z,1.38
2022-11-17T07:01:51.879Z,1.00
2022-11-17T07:04:18.733Z,0.80
2022-11-17T07:06:45.673Z,1.23
2022-11-17T07:09:12.396Z,1.23
2022-11-17T07:11:39.190Z,0.93
2022-11-17T07:14:05.912Z,1.17
2022-11-17T07:16:32.882Z,1.38
2022-11-17T07:18:59.771Z,1.38
2022-11-17T07:21:26.589Z,1.08
2022-11-17T07:23:53.596Z,2.05
2022-11-17T07:26:20.522Z,1.05
2022-11-17T07:28:47.317Z,1.40
2022-11-17T07:31:14.146Z,1.10
2022-11-17T07:33:40.951Z,1.50
2022-11-17T07:36:11.492Z,1.05
2022-11-17T07:38:39.681Z,1.00
2022-11-17T07:41:07.128Z,1.00
2022-11-17T07:43:34.490Z,1.17
2022-11-17T07:46:07.599Z,1.50
2022-11-17T07:48:35.943Z,1.10
2022-11-17T07:51:06.293Z,1.27
2022-11-17T07:53:34.960Z,1.30
2022-11-17T07:56:05.467Z,1.33
2022-11-17T07:58:32.674Z,1.00
2022-11-17T08:01:00.334Z,1.25
2022-11-17T08:03:27.272Z,1.52
2022-11-17T08:05:54.300Z,1.48
2022-11-17T08:08:21.525Z,1.48
2022-11-17T08:10:48.373Z,2.28
2022-11-17T08:13:15.956Z,2.95
2022-11-17T08:15:42.727Z,1.65
2022-11-17T08:18:09.628Z,1.50
2022-11-17T08:20:36.472Z,1.80
2022-11-17T08:23:03.353Z,1.50
2022-11-17T08:25:30.180Z,1.88
2022-11-17T08:27:57.916Z,1.27
2022-11-17T08:30:25.083Z,1.42
2022-11-17T08:32:52.684Z,2.45
2022-11-17T08:35:21.721Z,2.05
2022-11-17T08:37:48.526Z,1.48
2022-11-17T08:40:15.686Z,1.90
2022-11-17T08:42:42.458Z,2.15
2022-11-17T08:45:10.185Z,1.63
2022-11-17T08:47:37.416Z,2.33
2022-11-17T08:50:05.435Z,2.83
2022-11-17T08:52:32.345Z,1.92
2022-11-17T08:54:59.152Z,2.40
2022-11-17T08:57:26.664Z,1.98
2022-11-17T08:59:53.472Z,2.95
2022-11-17T09:02:20.233Z,1.92
2022-11-17T09:04:47.768Z,2.30
2022-11-17T09:07:14.491Z,2.22
2022-11-17T09:09:41.385Z,2.10
2022-11-17T09:12:08.280Z,2.38
2022-11-17T09:14:35.144Z,1.40
2022-11-17T09:17:01.873Z,1.50
2022-11-17T09:19:28.731Z,3.28
2022-11-17T09:21:55.680Z,2.10
2022-11-17T09:24:22.594Z,2.13
2022-11-17T09:26:49.458Z,1.80
2022-11-17T09:29:16.205Z,2.38
2022-11-17T09:31:45.168Z,1.90
2022-11-17T09:34:12.097Z,2.30
2022-11-17T09:36:38.817Z,3.10
2022-11-17T09:39:05.604Z,1.85
2022-11-17T09:41:42.151Z,1.95
2022-11-17T09:44:13.086Z,1.88
2022-11-17T09:46:59.709Z,1.77
2022-11-17T09:49:26.421Z,1.75
2022-11-17T09:51:53.257Z,1.98
2022-11-17T09:54:41.137Z,1.50
2022-11-17T09:57:09.937Z,1.15
2022-11-17T09:59:36.889Z,1.60
2022-11-17T10:02:08.066Z,1.65
2022-11-17T10:04:34.812Z,1.35
2022-11-17T10:07:03.667Z,1.65
2022-11-17T10:09:35.549Z,1.52
2022-11-17T10:12:22.102Z,2.15
2022-11-17T10:14:49.383Z,1.42
2022-11-17T10:17:16.262Z,1.73
2022-11-17T10:19:45.182Z,1.60
2022-11-17T10:22:49.154Z,1.55
2022-11-17T10:25:38.708Z,1.75
2022-11-17T10:28:09.518Z,1.73
2022-11-17T10:30:36.460Z,1.73
2022-11-17T10:33:03.907Z,2.28
2022-11-17T10:35:33.877Z,1.67
2022-11-17T10:38:28.909Z,1.00
2022-11-17T10:40:58.009Z,1.40
2022-11-17T10:43:28.837Z,1.95
2022-11-17T10:45:57.420Z,1.50
2022-11-17T10:48:36.862Z,3.05
2022-11-17T10:51:09.237Z,1.77
2022-11-17T10:53:44.853Z,1.30
2022-11-17T10:56:18.987Z,1.80
2022-11-17T10:59:24.207Z,1.83
2022-11-17T11:01:51.320Z,1.50
2022-11-17T11:04:32.643Z,2.20
2022-11-17T11:07:22.471Z,1.75
2022-11-17T11:10:14.073Z,1.77
2022-11-17T11:13:02.808Z,1.98
2022-11-17T11:15:34.585Z,1.80
2022-11-17T11:18:01.329Z,2.00
2022-11-17T11:20:41.238Z,1.25
2022-11-17T11:23:45.743Z,1.50
2022-11-17T11:26:41.133Z,1.40
2022-11-17T11:29:20.218Z,3.17
2022-11-17T11:32:05.192Z,1.70
2022-11-17T11:34:48.931Z,2.40
2022-11-17T11:37:15.861Z,1.73
2022-11-17T11:39:56.323Z,1.58
2022-11-17T11:42:43.295Z,1.30
2022-11-17T11:45:28.585Z,1.42
2022-11-17T11:48:21.658Z,1.55
2022-11-17T11:50:52.330Z,1.70
2022-11-17T11:53:31.156Z,1.83
2022-11-17T11:56:36.625Z,2.15
2022-11-17T11:59:39.851Z,1.67
2022-11-17T12:02:12.683Z,1.45
2022-11-17T12:04:39.468Z,2.20
2022-11-17T12:07:16.896Z,2.55
2022-11-17T12:10:10.346Z,2.00
2022-11-17T12:12:38.408Z,2.20
2022-11-17T12:15:20.233Z,1.70
2022-11-17T12:17:52.867Z,1.88
2022-11-17T12:20:43.433Z,3.05
2022-11-17T12:23:42.620Z,2.10
2022-11-17T12:26:20.040Z,2.42
2022-11-17T12:28:46.783Z,3.38
2022-11-17T12:31:43.312Z,1.95
2022-11-17T12:34:31.750Z,2.10
2022-11-17T12:37:19.000Z,1.73
2022-11-17T12:39:59.162Z,3.20
2022-11-17T12:42:27.113Z,1.73
2022-11-17T12:44:58.556Z,1.73
2022-11-17T12:47:30.280Z,1.60
2022-11-17T12:50:19.902Z,1.30
2022-11-17T12:52:52.845Z,1.85
2022-11-17T12:55:28.719Z,1.35
2022-11-17T12:58:10.203Z,2.83
2022-11-17T13:01:13.961Z,1.40
2022-11-17T13:03:50.279Z,1.58
2022-11-17T13:06:34.951Z,1.27
2022-11-17T13:09:07.672Z,1.60
2022-11-17T13:11:34.725Z,1.48
2022-11-17T13:14:15.768Z,2.25
2022-11-17T13:16:45.902Z,1.80
2022-11-17T13:19:29.981Z,1.83
2022-11-17T13:22:04.621Z,1.88
2022-11-17T13:24:35.995Z,1.52
2022-11-17T13:27:04.491Z,2.00
2022-11-17T13:29:31.851Z,1.60
2022-11-17T13:32:28.732Z,1.35
2022-11-17T13:34:57.609Z,1.80
2022-11-17T13:37:26.138Z,1.65
2022-11-17T13:40:01.354Z,2.00
2022-11-17T13:42:31.907Z,1.50
2022-11-17T13:45:03.003Z,1.90
2022-11-17T13:47:39.495Z,1.40
2022-11-17T13:50:32.684Z,1.70
2022-11-17T13:53:09.062Z,1.23
2022-11-17T13:55:35.816Z,2.10
2022-11-17T13:58:26.257Z,1.98
2022-11-17T14:00:54.652Z,1.65
2022-11-17T14:03:30.721Z,2.80
2022-11-17T14:05:57.835Z,1.95
2022-11-17T14:08:28.665Z,1.50
2022-11-17T14:11:05.403Z,1.67
2022-11-17T14:13:36.946Z,2.60
2022-11-17T14:16:03.708Z,1.70
2022-11-17T14:18:30.465Z,2.08
2022-11-17T14:21:14.977Z,1.63
2022-11-17T14:23:42.642Z,2.03
2022-11-17T14:26:23.538Z,1.38
2022-11-17T14:28:50.973Z,1.40
2022-11-17T14:31:18.036Z,1.55
2022-11-17T14:33:44.821Z,1.15
2022-11-17T14:36:15.551Z,1.30
2022-11-17T14:38:46.391Z,1.50
2022-11-17T14:41:15.313Z,1.20
2022-11-17T14:43:41.999Z,1.08
2022-11-17T14:46:18.963Z,1.40
2022-11-17T14:48:48.926Z,1.27
2022-11-17T14:51:16.258Z,1.30
2022-11-17T14:53:43.995Z,1.00
2022-11-17T14:56:12.157Z,1.20
2022-11-17T14:58:39.098Z,0.93
2022-11-17T15:01:19.043Z,1.40
2022-11-17T15:03:45.952Z,0.80
2022-11-17T15:06:19.346Z,1.85
2022-11-17T15:08:47.403Z,1.25
2022-11-17T15:11:16.135Z,1.08
2022-11-17T15:13:43.352Z,1.50
2022-11-17T15:16:10.145Z,1.05
2022-11-17T15:18:36.933Z,1.67
2022-11-17T15:21:08.102Z,1.10
2022-11-17T15:23:37.054Z,1.00
2022-11-17T15:26:04.988Z,1.38
2022-11-17T15:28:31.708Z,1.10
2022-11-17T15:30:58.511Z,1.20
2022-11-17T15:33:25.631Z,1.05
2022-11-17T15:36:02.283Z,1.38
2022-11-17T15:38:29.196Z,1.10
2022-11-17T15:40:56.009Z,1.20
2022-11-17T15:43:26.866Z,1.20
2022-11-17T15:45:59.708Z,1.30
2022-11-17T15:48:26.550Z,0.98
2022-11-17T15:50:57.700Z,0.90
2022-11-17T15:53:25.258Z,0.90
2022-11-17T15:55:52.124Z,1.10
2022-11-17T15:58:18.989Z,1.27
2022-11-17T16:00:45.797Z,1.17
2022-11-17T16:03:12.565Z,0.90
2022-11-17T16:05:39.801Z,0.80
2022-11-17T16:08:06.670Z,1.35
2022-11-17T16:10:33.463Z,1.48
2022-11-17T16:13:00.183Z,1.00
2022-11-17T16:15:26.914Z,1.20
2022-11-17T16:17:53.657Z,1.45
2022-11-17T16:20:20.477Z,1.50
2022-11-17T16:22:47.277Z,1.20
2022-11-17T16:25:14.215Z,2.15
2022-11-17T16:27:41.190Z,1.33
2022-11-17T16:30:08.685Z,1.10
2022-11-17T16:32:35.447Z,0.70
2022-11-17T16:35:02.416Z,1.10
2022-11-17T16:37:29.364Z,1.20
2022-11-17T16:39:56.400Z,0.80
2022-11-17T16:42:23.213Z,0.90
2022-11-17T16:44:50.009Z,1.30
2022-11-17T16:47:16.836Z,1.00
2022-11-17T16:49:46.735Z,0.90
2022-11-17T16:52:15.835Z,1.05
2022-11-17T16:54:42.544Z,0.93
2022-11-17T16:57:09.280Z,1.23
2022-11-17T16:59:36.573Z,1.17
2022-11-17T17:02:03.398Z,1.45
2022-11-17T17:04:32.506Z,1.30
2022-11-17T17:07:04.991Z,1.00
2022-11-17T17:09:31.723Z,1.50
2022-11-17T17:11:58.610Z,1.00
2022-11-17T17:14:25.324Z,1.00
2022-11-17T17:16:52.168Z,1.10
2022-11-17T17:19:19.321Z,0.85
2022-11-17T17:21:46.116Z,1.52
2022-11-17T17:24:13.056Z,1.60
2022-11-17T17:26:40.627Z,1.02
2022-11-17T17:29:07.623Z,1.58
2022-11-17T17:31:38.944Z,1.20
2022-11-17T17:34:06.399Z,1.35
2022-11-17T17:36:35.583Z,1.67
2022-11-17T17:39:03.416Z,1.73
2022-11-17T17:41:32.029Z,1.33
2022-11-17T17:44:00.694Z,1.52
2022-11-17T17:46:29.833Z,1.10
2022-11-17T17:48:56.710Z,1.33
2022-11-17T17:51:25.171Z,1.40
2022-11-17T17:53:56.028Z,1.73
2022-11-17T17:56:23.576Z,2.13
2022-11-17T17:58:51.681Z,1.63
2022-11-17T18:01:23.051Z,1.48
2022-11-17T18:03:50.415Z,1.60
2022-11-17T18:06:18.695Z,1.10
2022-11-17T18:08:45.755Z,1.48
2022-11-17T18:11:17.268Z,1.45
2022-11-17T18:13:44.934Z,1.65
2022-11-17T18:16:13.996Z,1.55
2022-11-17T18:18:40.864Z,1.40
2022-11-17T18:21:09.628Z,1.33
2022-11-17T18:23:36.616Z,1.60
2022-11-17T18:26:16.702Z,2.17
2022-11-17T18:28:45.069Z,1.60
2022-11-17T18:31:11.896Z,2.00
2022-11-17T18:33:38.623Z,1.65
2022-11-17T18:36:07.000Z,2.28
2022-11-17T18:38:34.909Z,1.88
2022-11-17T18:41:15.174Z,1.70
2022-11-17T18:43:42.246Z,1.90
2022-11-17T18:46:13.801Z,1.38
2022-11-17T18:48:41.880Z,1.95
2022-11-17T18:51:20.997Z,1.67
2022-11-17T18:53:49.301Z,1.40
2022-11-17T18:56:17.038Z,1.45
2022-11-17T18:58:44.043Z,1.48
2022-11-17T19:01:18.924Z,1.35
2022-11-17T19:03:48.294Z,2.20
2022-11-17T19:06:15.347Z,1.58
2022-11-17T19:08:42.301Z,1.58
2022-11-17T19:11:09.350Z,1.63
2022-11-17T19:13:37.096Z,1.60
2022-11-17T19:16:05.503Z,1.90
2022-11-17T19:18:32.476Z,1.33
2022-11-17T19:21:14.600Z,1.73
2022-11-17T19:23:45.388Z,1.50
2022-11-17T19:26:16.553Z,1.42
2022-11-17T19:28:43.608Z,2.25
2022-11-17T19:31:12.144Z,1.70
2022-11-17T19:33:39.485Z,1.80
2022-11-17T19:36:11.086Z,1.63
2022-11-17T19:38:42.946Z,1.40
2022-11-17T19:41:15.165Z,1.58
2022-11-17T19:43:45.345Z,1.60
2022-11-17T19:46:16.679Z,2.03
2022-11-17T19:48:44.157Z,2.25
2022-11-17T19:51:21.294Z,1.20
2022-11-17T19:53:58.308Z,1.52
2022-11-17T19:56:27.852Z,1.80
2022-11-17T19:58:54.817Z,1.77
2022-11-17T20:01:26.351Z,1.75
2022-11-17T20:03:54.003Z,1.63
2022-11-17T20:06:23.352Z,1.30
2022-11-17T20:08:50.179Z,1.50
2022-11-17T20:11:18.850Z,1.55
2022-11-17T20:13:48.527Z,2.80
2022-11-17T20:16:17.199Z,1.77
2022-11-17T20:18:44.796Z,1.95
2022-11-17T20:21:14.188Z,1.55
2022-11-17T20:23:41.127Z,2.53
2022-11-17T20:26:29.182Z,1.92
2022-11-17T20:28:57.066Z,1.80
2022-11-17T20:31:25.458Z,1.70
2022-11-17T20:33:53.474Z,1.70
2022-11-17T20:36:21.128Z,1.80
2022-11-17T20:38:55.472Z,2.50
2022-11-17T20:41:23.381Z,2.05
2022-11-17T20:43:50.984Z,1.70
2022-11-17T20:46:17.883Z,1.42
2022-11-17T20:48:45.705Z,1.65
2022-11-17T20:51:14.753Z,1.75
2022-11-17T20:53:41.818Z,1.70
2022-11-17T20:56:10.136Z,1.50
2022-11-17T20:58:37.158Z,1.60
2022-11-17T21:01:11.798Z,2.33
2022-11-17T21:03:38.682Z,1.70
2022-11-17T21:06:12.020Z,1.50
2022-11-17T21:08:39.778Z,1.60
2022-11-17T21:11:08.443Z,1.58
2022-11-17T21:13:38.493Z,1.48
2022-11-17T21:16:13.090Z,1.33
2022-11-17T21:18:45.082Z,1.77
2022-11-17T21:21:13.047Z,2.85
2022-11-17T21:23:42.524Z,1.30
2022-11-17T21:26:13.611Z,2.97
2022-11-17T21:28:41.148Z,2.10
2022-11-17T21:31:18.489Z,1.48
2022-11-17T21:33:45.476Z,1.63
2022-11-17T21:36:15.643Z,2.67
2022-11-17T21:38:42.906Z,1.80
2022-11-17T21:41:17.000Z,1.13
2022-11-17T21:46:13.119Z,1.50
2022-11-17T21:48:39.908Z,1.58
2022-11-17T21:51:07.957Z,1.63
2022-11-17T21:53:41.301Z,1.88
2022-11-17T21:56:11.451Z,1.52
2022-11-17T21:58:38.544Z,1.63
2022-11-17T22:01:15.735Z,1.08
2022-11-17T22:03:42.781Z,1.50
2022-11-17T22:06:11.408Z,1.63
2022-11-17T22:08:38.842Z,1.60
2022-11-17T22:11:07.067Z,1.80
2022-11-17T22:13:34.466Z,1.60
2022-11-17T22:16:07.493Z,1.65
2022-11-17T22:18:38.049Z,1.33
2022-11-17T22:21:07.064Z,1.20
2022-11-17T22:23:34.215Z,1.42
2022-11-17T22:26:02.696Z,1.23
2022-11-17T22:28:29.613Z,1.15
2022-11-17T22:30:56.675Z,1.42
2022-11-17T22:33:26.023Z,1.15
2022-11-17T22:35:55.002Z,1.48
2022-11-17T22:38:21.765Z,1.08
2022-11-17T22:40:48.784Z,1.27
2022-11-17T22:43:15.828Z,1.35
2022-11-17T22:45:42.735Z,1.10
2022-11-17T22:48:09.577Z,2.75
2022-11-17T22:50:36.573Z,1.20
2022-11-17T22:53:03.296Z,1.88
2022-11-17T22:55:30.195Z,1.20
2022-11-17T22:57:56.940Z,1.45
2022-11-17T23:00:23.756Z,2.15
2022-11-17T23:02:50.620Z,1.73
2022-11-17T23:05:17.620Z,1.15
2022-11-17T23:07:44.512Z,1.33
2022-11-17T23:10:11.590Z,1.23
2022-11-17T23:12:38.475Z,1.55
2022-11-17T23:15:06.285Z,2.10
2022-11-17T23:17:33.312Z,1.95
2022-11-17T23:20:00.032Z,1.60
2022-11-17T23:22:26.743Z,1.00
2022-11-17T23:24:53.516Z,1.75
2022-11-17T23:27:20.256Z,1.75
2022-11-17T23:29:47.068Z,1.23
2022-11-17T23:32:13.782Z,1.27
2022-11-17T23:34:40.522Z,1.38
2022-11-17T23:37:07.218Z,1.38
2022-11-17T23:39:33.925Z,1.00
2022-11-17T23:42:00.696Z,1.35
2022-11-17T23:44:27.348Z,0.90
2022-11-17T23:46:54.104Z,2.85
2022-11-17T23:49:20.850Z,1.40
2022-11-17T23:51:47.791Z,1.30
2022-11-17T23:54:14.609Z,1.40
2022-11-17T23:56:41.463Z,2.00
2022-11-17T23:59:08.317Z,1.70
